sensor_id;sensor_type;location;lat;lon;timestamp;P1;durP1;ratioP1;P2;durP2;ratioP2
80257;SDS011;69565;37.974;23.708;2023-04-24T00:01:27;15.68;;;8.30;;
80257;SDS011;69565;37.974;23.708;2023-04-24T00:03:54;19.48;;;8.30;;
80257;SDS011;69565;37.974;23.708;2023-04-24T00:06:24;17.08;;;8.18;;
80257;SDS011;69565;37.974;23.708;2023-04-24T00:08:58;15.70;;;8.15;;
80257;SDS011;69565;37.974;23.708;2023-04-24T00:11:26;17.13;;;8.98;;
80257;SDS011;69565;37.974;23.708;2023-04-24T00:13:52;21.67;;;8.05;;
80257;SDS011;69565;37.974;23.708;2023-04-24T00:16:18;14.88;;;8.30;;
80257;SDS011;69565;37.974;23.708;2023-04-24T00:18:44;15.55;;;7.82;;
80257;SDS011;69565;37.974;23.708;2023-04-24T00:21:10;14.20;;;7.88;;
80257;SDS011;69565;37.974;23.708;2023-04-24T00:23:36;20.15;;;8.77;;
80257;SDS011;69565;37.974;23.708;2023-04-24T00:26:02;14.73;;;8.30;;
80257;SDS011;69565;37.974;23.708;2023-04-24T00:28:28;14.20;;;8.52;;
80257;SDS011;69565;37.974;23.708;2023-04-24T00:30:53;15.30;;;7.82;;
80257;SDS011;69565;37.974;23.708;2023-04-24T00:33:19;22.23;;;8.75;;
80257;SDS011;69565;37.974;23.708;2023-04-24T00:35:45;18.65;;;7.50;;
80257;SDS011;69565;37.974;23.708;2023-04-24T00:38:11;14.63;;;7.75;;
80257;SDS011;69565;37.974;23.708;2023-04-24T00:40:36;17.60;;;8.10;;
80257;SDS011;69565;37.974;23.708;2023-04-24T00:43:02;20.45;;;7.95;;
80257;SDS011;69565;37.974;23.708;2023-04-24T00:45:28;17.77;;;8.07;;
80257;SDS011;69565;37.974;23.708;2023-04-24T00:47:56;12.95;;;7.82;;
80257;SDS011;69565;37.974;23.708;2023-04-24T00:50:23;18.40;;;7.90;;
80257;SDS011;69565;37.974;23.708;2023-04-24T00:52:49;17.55;;;7.55;;
80257;SDS011;69565;37.974;23.708;2023-04-24T00:55:15;12.52;;;7.47;;
80257;SDS011;69565;37.974;23.708;2023-04-24T00:57:41;18.40;;;7.82;;
80257;SDS011;69565;37.974;23.708;2023-04-24T01:00:08;20.25;;;9.05;;
80257;SDS011;69565;37.974;23.708;2023-04-24T01:02:35;18.13;;;7.75;;
80257;SDS011;69565;37.974;23.708;2023-04-24T01:05:05;15.35;;;7.07;;
80257;SDS011;69565;37.974;23.708;2023-04-24T01:07:33;13.40;;;7.80;;
80257;SDS011;69565;37.974;23.708;2023-04-24T01:10:00;14.88;;;7.55;;
80257;SDS011;69565;37.974;23.708;2023-04-24T01:12:27;17.60;;;7.85;;
80257;SDS011;69565;37.974;23.708;2023-04-24T01:14:53;12.02;;;7.43;;
80257;SDS011;69565;37.974;23.708;2023-04-24T01:17:20;18.75;;;7.93;;
80257;SDS011;69565;37.974;23.708;2023-04-24T01:19:46;15.27;;;7.80;;
80257;SDS011;69565;37.974;23.708;2023-04-24T01:22:15;13.25;;;7.13;;
80257;SDS011;69565;37.974;23.708;2023-04-24T01:24:41;10.60;;;7.07;;
80257;SDS011;69565;37.974;23.708;2023-04-24T01:27:08;15.10;;;8.02;;
80257;SDS011;69565;37.974;23.708;2023-04-24T01:29:35;17.40;;;7.95;;
80257;SDS011;69565;37.974;23.708;2023-04-24T01:32:01;14.20;;;7.50;;
80257;SDS011;69565;37.974;23.708;2023-04-24T01:34:28;15.45;;;7.65;;
80257;SDS011;69565;37.974;23.708;2023-04-24T01:36:54;13.75;;;6.95;;
80257;SDS011;69565;37.974;23.708;2023-04-24T01:39:21;12.48;;;7.35;;
80257;SDS011;69565;37.974;23.708;2023-04-24T01:41:48;18.38;;;7.93;;
80257;SDS011;69565;37.974;23.708;2023-04-24T01:44:15;16.30;;;7.03;;
80257;SDS011;69565;37.974;23.708;2023-04-24T01:46:41;14.80;;;7.45;;
80257;SDS011;69565;37.974;23.708;2023-04-24T01:49:07;19.50;;;8.48;;
80257;SDS011;69565;37.974;23.708;2023-04-24T01:51:33;19.65;;;7.53;;
80257;SDS011;69565;37.974;23.708;2023-04-24T01:53:58;15.95;;;7.45;;
80257;SDS011;69565;37.974;23.708;2023-04-24T01:56:24;18.25;;;7.68;;
80257;SDS011;69565;37.974;23.708;2023-04-24T01:58:53;19.52;;;8.35;;
80257;SDS011;69565;37.974;23.708;2023-04-24T02:01:20;17.83;;;8.15;;
80257;SDS011;69565;37.974;23.708;2023-04-24T02:03:46;16.40;;;7.65;;
80257;SDS011;69565;37.974;23.708;2023-04-24T02:06:11;18.27;;;8.57;;
80257;SDS011;69565;37.974;23.708;2023-04-24T02:08:37;18.45;;;7.47;;
80257;SDS011;69565;37.974;23.708;2023-04-24T02:11:03;19.75;;;7.93;;
80257;SDS011;69565;37.974;23.708;2023-04-24T02:13:29;15.88;;;8.15;;
80257;SDS011;69565;37.974;23.708;2023-04-24T02:15:54;26.52;;;7.85;;
80257;SDS011;69565;37.974;23.708;2023-04-24T02:18:20;15.18;;;7.95;;
80257;SDS011;69565;37.974;23.708;2023-04-24T02:20:47;15.07;;;8.25;;
80257;SDS011;69565;37.974;23.708;2023-04-24T02:23:13;12.50;;;7.18;;
80257;SDS011;69565;37.974;23.708;2023-04-24T02:25:39;14.85;;;7.75;;
80257;SDS011;69565;37.974;23.708;2023-04-24T02:28:05;16.90;;;7.93;;
80257;SDS011;69565;37.974;23.708;2023-04-24T02:30:31;13.38;;;7.95;;
80257;SDS011;69565;37.974;23.708;2023-04-24T02:32:57;15.57;;;7.82;;
80257;SDS011;69565;37.974;23.708;2023-04-24T02:35:22;19.40;;;8.10;;
80257;SDS011;69565;37.974;23.708;2023-04-24T02:37:48;13.77;;;7.97;;
80257;SDS011;69565;37.974;23.708;2023-04-24T02:40:14;15.60;;;8.15;;
80257;SDS011;69565;37.974;23.708;2023-04-24T02:42:39;14.95;;;7.93;;
80257;SDS011;69565;37.974;23.708;2023-04-24T02:45:05;18.13;;;8.40;;
80257;SDS011;69565;37.974;23.708;2023-04-24T02:47:31;15.73;;;7.80;;
80257;SDS011;69565;37.974;23.708;2023-04-24T02:49:57;15.23;;;7.82;;
80257;SDS011;69565;37.974;23.708;2023-04-24T02:52:23;17.10;;;7.97;;
80257;SDS011;69565;37.974;23.708;2023-04-24T02:54:48;17.85;;;8.15;;
80257;SDS011;69565;37.974;23.708;2023-04-24T02:57:14;13.25;;;7.72;;
80257;SDS011;69565;37.974;23.708;2023-04-24T02:59:40;15.43;;;6.70;;
80257;SDS011;69565;37.974;23.708;2023-04-24T03:02:06;15.40;;;8.00;;
80257;SDS011;69565;37.974;23.708;2023-04-24T03:04:31;15.93;;;7.20;;
80257;SDS011;69565;37.974;23.708;2023-04-24T03:06:57;15.40;;;7.53;;
80257;SDS011;69565;37.974;23.708;2023-04-24T03:09:23;13.23;;;7.60;;
80257;SDS011;69565;37.974;23.708;2023-04-24T03:11:50;22.67;;;7.97;;
80257;SDS011;69565;37.974;23.708;2023-04-24T03:14:16;16.13;;;7.43;;
80257;SDS011;69565;37.974;23.708;2023-04-24T03:16:42;16.75;;;7.55;;
80257;SDS011;69565;37.974;23.708;2023-04-24T03:19:08;15.93;;;8.02;;
80257;SDS011;69565;37.974;23.708;2023-04-24T03:21:33;17.67;;;8.13;;
80257;SDS011;69565;37.974;23.708;2023-04-24T03:24:00;19.42;;;7.72;;
80257;SDS011;69565;37.974;23.708;2023-04-24T03:26:27;14.35;;;7.40;;
80257;SDS011;69565;37.974;23.708;2023-04-24T03:28:53;12.57;;;7.40;;
80257;SDS011;69565;37.974;23.708;2023-04-24T03:31:18;14.98;;;7.10;;
80257;SDS011;69565;37.974;23.708;2023-04-24T03:33:46;31.55;;;7.30;;
80257;SDS011;69565;37.974;23.708;2023-04-24T03:36:12;22.70;;;6.85;;
80257;SDS011;69565;37.974;23.708;2023-04-24T03:38:37;20.05;;;5.80;;
80257;SDS011;69565;37.974;23.708;2023-04-24T03:41:03;26.05;;;6.70;;
80257;SDS011;69565;37.974;23.708;2023-04-24T03:43:29;23.50;;;6.60;;
80257;SDS011;69565;37.974;23.708;2023-04-24T03:45:55;32.85;;;7.18;;
80257;SDS011;69565;37.974;23.708;2023-04-24T03:48:20;13.98;;;6.53;;
80257;SDS011;69565;37.974;23.708;2023-04-24T03:50:46;29.52;;;7.07;;
80257;SDS011;69565;37.974;23.708;2023-04-24T03:53:12;19.38;;;7.10;;
80257;SDS011;69565;37.974;23.708;2023-04-24T03:55:37;12.90;;;6.07;;
80257;SDS011;69565;37.974;23.708;2023-04-24T03:58:03;23.30;;;6.72;;
80257;SDS011;69565;37.974;23.708;2023-04-24T04:00:29;18.60;;;6.13;;
80257;SDS011;69565;37.974;23.708;2023-04-24T04:02:58;32.28;;;7.28;;
80257;SDS011;69565;37.974;23.708;2023-04-24T04:05:24;13.88;;;6.28;;
80257;SDS011;69565;37.974;23.708;2023-04-24T04:07:49;17.98;;;6.30;;
80257;SDS011;69565;37.974;23.708;2023-04-24T04:10:15;13.98;;;6.18;;
80257;SDS011;69565;37.974;23.708;2023-04-24T04:12:42;18.73;;;6.85;;
80257;SDS011;69565;37.974;23.708;2023-04-24T04:15:08;15.25;;;5.68;;
80257;SDS011;69565;37.974;23.708;2023-04-24T04:17:34;13.90;;;7.07;;
80257;SDS011;69565;37.974;23.708;2023-04-24T04:19:59;22.80;;;7.22;;
80257;SDS011;69565;37.974;23.708;2023-04-24T04:22:25;11.77;;;6.35;;
80257;SDS011;69565;37.974;23.708;2023-04-24T04:24:51;21.13;;;7.47;;
80257;SDS011;69565;37.974;23.708;2023-04-24T04:27:17;13.93;;;7.03;;
80257;SDS011;69565;37.974;23.708;2023-04-24T04:29:44;19.75;;;7.32;;
80257;SDS011;69565;37.974;23.708;2023-04-24T04:32:09;12.95;;;6.57;;
80257;SDS011;69565;37.974;23.708;2023-04-24T04:34:35;23.70;;;8.10;;
80257;SDS011;69565;37.974;23.708;2023-04-24T04:37:02;25.13;;;7.85;;
80257;SDS011;69565;37.974;23.708;2023-04-24T04:39:28;17.35;;;7.20;;
80257;SDS011;69565;37.974;23.708;2023-04-24T04:41:55;21.25;;;7.47;;
80257;SDS011;69565;37.974;23.708;2023-04-24T04:44:21;13.13;;;6.35;;
80257;SDS011;69565;37.974;23.708;2023-04-24T04:46:47;19.40;;;6.97;;
80257;SDS011;69565;37.974;23.708;2023-04-24T04:49:13;16.58;;;7.28;;
80257;SDS011;69565;37.974;23.708;2023-04-24T04:51:41;15.40;;;7.60;;
80257;SDS011;69565;37.974;23.708;2023-04-24T04:54:07;20.63;;;7.43;;
80257;SDS011;69565;37.974;23.708;2023-04-24T04:56:33;14.38;;;6.45;;
80257;SDS011;69565;37.974;23.708;2023-04-24T04:58:58;19.85;;;7.18;;
80257;SDS011;69565;37.974;23.708;2023-04-24T05:01:24;22.50;;;7.20;;
80257;SDS011;69565;37.974;23.708;2023-04-24T05:03:52;23.23;;;7.00;;
80257;SDS011;69565;37.974;23.708;2023-04-24T05:06:18;18.27;;;7.00;;
80257;SDS011;69565;37.974;23.708;2023-04-24T05:08:44;20.42;;;8.30;;
80257;SDS011;69565;37.974;23.708;2023-04-24T05:11:10;26.45;;;6.93;;
80257;SDS011;69565;37.974;23.708;2023-04-24T05:13:35;21.52;;;6.93;;
80257;SDS011;69565;37.974;23.708;2023-04-24T05:16:01;17.10;;;7.13;;
80257;SDS011;69565;37.974;23.708;2023-04-24T05:18:27;14.85;;;6.88;;
80257;SDS011;69565;37.974;23.708;2023-04-24T05:20:52;18.25;;;7.18;;
80257;SDS011;69565;37.974;23.708;2023-04-24T05:23:18;18.67;;;6.97;;
80257;SDS011;69565;37.974;23.708;2023-04-24T05:25:44;17.88;;;5.63;;
80257;SDS011;69565;37.974;23.708;2023-04-24T05:28:11;17.52;;;5.78;;
80257;SDS011;69565;37.974;23.708;2023-04-24T05:30:36;12.50;;;5.03;;
80257;SDS011;69565;37.974;23.708;2023-04-24T05:33:02;13.63;;;4.90;;
80257;SDS011;69565;37.974;23.708;2023-04-24T05:35:28;16.50;;;5.10;;
80257;SDS011;69565;37.974;23.708;2023-04-24T05:37:53;15.57;;;5.60;;
80257;SDS011;69565;37.974;23.708;2023-04-24T05:40:19;10.20;;;4.43;;
80257;SDS011;69565;37.974;23.708;2023-04-24T05:42:45;12.25;;;4.57;;
80257;SDS011;69565;37.974;23.708;2023-04-24T05:45:10;13.35;;;4.53;;
80257;SDS011;69565;37.974;23.708;2023-04-24T05:47:41;11.45;;;4.13;;
80257;SDS011;69565;37.974;23.708;2023-04-24T05:50:08;5.05;;;3.60;;
80257;SDS011;69565;37.974;23.708;2023-04-24T05:52:35;14.48;;;3.85;;
80257;SDS011;69565;37.974;23.708;2023-04-24T05:55:00;8.13;;;3.53;;
80257;SDS011;69565;37.974;23.708;2023-04-24T05:57:26;16.13;;;3.72;;
80257;SDS011;69565;37.974;23.708;2023-04-24T05:59:52;8.63;;;2.95;;
80257;SDS011;69565;37.974;23.708;2023-04-24T06:02:17;6.78;;;2.70;;
80257;SDS011;69565;37.974;23.708;2023-04-24T06:04:44;6.20;;;3.30;;
80257;SDS011;69565;37.974;23.708;2023-04-24T06:07:13;12.85;;;3.08;;
80257;SDS011;69565;37.974;23.708;2023-04-24T06:09:38;7.05;;;2.17;;
80257;SDS011;69565;37.974;23.708;2023-04-24T06:12:04;8.57;;;2.30;;
80257;SDS011;69565;37.974;23.708;2023-04-24T06:14:32;8.90;;;2.05;;
80257;SDS011;69565;37.974;23.708;2023-04-24T06:16:57;6.72;;;1.88;;
80257;SDS011;69565;37.974;23.708;2023-04-24T06:19:23;8.57;;;2.10;;
80257;SDS011;69565;37.974;23.708;2023-04-24T06:21:49;5.70;;;1.73;;
80257;SDS011;69565;37.974;23.708;2023-04-24T06:24:15;2.95;;;1.50;;
80257;SDS011;69565;37.974;23.708;2023-04-24T06:26:43;8.15;;;1.42;;
80257;SDS011;69565;37.974;23.708;2023-04-24T06:29:09;9.13;;;1.67;;
80257;SDS011;69565;37.974;23.708;2023-04-24T06:31:35;5.85;;;1.70;;
80257;SDS011;69565;37.974;23.708;2023-04-24T06:34:02;5.10;;;1.20;;
80257;SDS011;69565;37.974;23.708;2023-04-24T06:36:28;4.68;;;1.20;;
80257;SDS011;69565;37.974;23.708;2023-04-24T06:38:55;5.88;;;1.25;;
80257;SDS011;69565;37.974;23.708;2023-04-24T06:41:22;4.13;;;1.17;;
80257;SDS011;69565;37.974;23.708;2023-04-24T06:43:48;7.68;;;1.00;;
80257;SDS011;69565;37.974;23.708;2023-04-24T06:46:13;8.38;;;1.42;;
80257;SDS011;69565;37.974;23.708;2023-04-24T06:48:39;7.95;;;1.40;;
80257;SDS011;69565;37.974;23.708;2023-04-24T06:51:05;7.00;;;1.30;;
80257;SDS011;69565;37.974;23.708;2023-04-24T06:53:30;6.40;;;1.05;;
80257;SDS011;69565;37.974;23.708;2023-04-24T06:55:56;4.68;;;1.17;;
80257;SDS011;69565;37.974;23.708;2023-04-24T06:58:22;4.95;;;1.17;;
80257;SDS011;69565;37.974;23.708;2023-04-24T07:00:49;1.58;;;0.90;;
80257;SDS011;69565;37.974;23.708;2023-04-24T07:03:14;6.07;;;1.00;;
80257;SDS011;69565;37.974;23.708;2023-04-24T07:05:40;7.82;;;1.13;;
80257;SDS011;69565;37.974;23.708;2023-04-24T07:08:06;2.33;;;0.90;;
80257;SDS011;69565;37.974;23.708;2023-04-24T07:10:33;2.05;;;0.88;;
80257;SDS011;69565;37.974;23.708;2023-04-24T07:13:00;4.15;;;0.90;;
80257;SDS011;69565;37.974;23.708;2023-04-24T07:15:26;3.92;;;0.90;;
80257;SDS011;69565;37.974;23.708;2023-04-24T07:17:52;8.25;;;1.00;;
80257;SDS011;69565;37.974;23.708;2023-04-24T07:20:18;5.03;;;1.00;;
80257;SDS011;69565;37.974;23.708;2023-04-24T07:22:43;4.57;;;1.15;;
80257;SDS011;69565;37.974;23.708;2023-04-24T07:25:09;4.57;;;1.20;;
80257;SDS011;69565;37.974;23.708;2023-04-24T07:27:35;3.45;;;0.90;;
80257;SDS011;69565;37.974;23.708;2023-04-24T07:30:01;1.48;;;1.00;;
80257;SDS011;69565;37.974;23.708;2023-04-24T07:32:28;2.42;;;0.90;;
80257;SDS011;69565;37.974;23.708;2023-04-24T07:34:54;4.50;;;0.90;;
80257;SDS011;69565;37.974;23.708;2023-04-24T07:37:20;2.22;;;0.82;;
80257;SDS011;69565;37.974;23.708;2023-04-24T07:39:46;8.82;;;0.70;;
80257;SDS011;69565;37.974;23.708;2023-04-24T07:42:12;4.13;;;0.60;;
80257;SDS011;69565;37.974;23.708;2023-04-24T07:44:38;1.10;;;0.70;;
80257;SDS011;69565;37.974;23.708;2023-04-24T07:47:03;4.22;;;0.60;;
80257;SDS011;69565;37.974;23.708;2023-04-24T07:49:29;1.15;;;0.60;;
80257;SDS011;69565;37.974;23.708;2023-04-24T07:51:55;1.08;;;0.60;;
80257;SDS011;69565;37.974;23.708;2023-04-24T07:54:21;1.08;;;0.55;;
80257;SDS011;69565;37.974;23.708;2023-04-24T07:56:47;1.15;;;0.57;;
80257;SDS011;69565;37.974;23.708;2023-04-24T07:59:13;4.78;;;0.68;;
80257;SDS011;69565;37.974;23.708;2023-04-24T08:01:39;1.23;;;0.52;;
80257;SDS011;69565;37.974;23.708;2023-04-24T08:04:05;3.05;;;0.60;;
80257;SDS011;69565;37.974;23.708;2023-04-24T08:06:30;0.95;;;0.50;;
80257;SDS011;69565;37.974;23.708;2023-04-24T08:08:57;4.28;;;0.60;;
80257;SDS011;69565;37.974;23.708;2023-04-24T08:11:23;2.20;;;0.55;;
80257;SDS011;69565;37.974;23.708;2023-04-24T08:13:49;2.60;;;0.60;;
80257;SDS011;69565;37.974;23.708;2023-04-24T08:16:15;1.08;;;0.50;;
80257;SDS011;69565;37.974;23.708;2023-04-24T08:18:41;2.15;;;0.60;;
80257;SDS011;69565;37.974;23.708;2023-04-24T08:21:06;0.93;;;0.52;;
80257;SDS011;69565;37.974;23.708;2023-04-24T08:23:32;4.13;;;0.55;;
80257;SDS011;69565;37.974;23.708;2023-04-24T08:25:58;1.27;;;0.60;;
80257;SDS011;69565;37.974;23.708;2023-04-24T08:28:24;1.58;;;0.70;;
80257;SDS011;69565;37.974;23.708;2023-04-24T08:30:50;1.90;;;0.70;;
80257;SDS011;69565;37.974;23.708;2023-04-24T08:33:19;3.28;;;0.70;;
80257;SDS011;69565;37.974;23.708;2023-04-24T08:35:47;3.75;;;0.60;;
80257;SDS011;69565;37.974;23.708;2023-04-24T08:38:12;1.10;;;0.60;;
80257;SDS011;69565;37.974;23.708;2023-04-24T08:40:38;4.70;;;0.63;;
80257;SDS011;69565;37.974;23.708;2023-04-24T08:43:04;10.15;;;0.60;;
80257;SDS011;69565;37.974;23.708;2023-04-24T08:45:30;5.60;;;0.70;;
80257;SDS011;69565;37.974;23.708;2023-04-24T08:47:58;7.60;;;0.73;;
80257;SDS011;69565;37.974;23.708;2023-04-24T08:50:25;9.02;;;0.70;;
80257;SDS011;69565;37.974;23.708;2023-04-24T08:52:51;4.20;;;0.63;;
80257;SDS011;69565;37.974;23.708;2023-04-24T08:55:19;5.15;;;0.60;;
80257;SDS011;69565;37.974;23.708;2023-04-24T08:57:46;4.30;;;0.70;;
80257;SDS011;69565;37.974;23.708;2023-04-24T09:00:16;5.20;;;0.80;;
80257;SDS011;69565;37.974;23.708;2023-04-24T09:02:43;1.50;;;0.70;;
80257;SDS011;69565;37.974;23.708;2023-04-24T09:05:09;3.33;;;0.60;;
80257;SDS011;69565;37.974;23.708;2023-04-24T09:07:36;10.20;;;0.65;;
80257;SDS011;69565;37.974;23.708;2023-04-24T09:10:04;1.70;;;0.65;;
80257;SDS011;69565;37.974;23.708;2023-04-24T09:12:31;4.75;;;0.70;;
80257;SDS011;69565;37.974;23.708;2023-04-24T09:14:59;1.25;;;0.70;;
80257;SDS011;69565;37.974;23.708;2023-04-24T09:17:28;4.75;;;0.70;;
80257;SDS011;69565;37.974;23.708;2023-04-24T09:19:55;1.30;;;0.65;;
80257;SDS011;69565;37.974;23.708;2023-04-24T09:22:21;0.70;;;0.60;;
80257;SDS011;69565;37.974;23.708;2023-04-24T09:24:47;2.10;;;0.88;;
80257;SDS011;69565;37.974;23.708;2023-04-24T09:27:13;2.33;;;0.63;;
80257;SDS011;69565;37.974;23.708;2023-04-24T09:30:02;3.55;;;0.70;;
80257;SDS011;69565;37.974;23.708;2023-04-24T09:32:28;3.70;;;0.70;;
80257;SDS011;69565;37.974;23.708;2023-04-24T09:35:14;1.08;;;0.60;;
80257;SDS011;69565;37.974;23.708;2023-04-24T09:40:14;2.35;;;0.70;;
80257;SDS011;69565;37.974;23.708;2023-04-24T09:42:44;1.35;;;0.60;;
80257;SDS011;69565;37.974;23.708;2023-04-24T09:45:18;2.13;;;0.63;;
80257;SDS011;69565;37.974;23.708;2023-04-24T09:47:44;4.20;;;0.60;;
80257;SDS011;69565;37.974;23.708;2023-04-24T09:50:10;2.17;;;0.70;;
80257;SDS011;69565;37.974;23.708;2023-04-24T09:52:43;2.30;;;0.63;;
80257;SDS011;69565;37.974;23.708;2023-04-24T09:55:28;1.08;;;0.60;;
80257;SDS011;69565;37.974;23.708;2023-04-24T09:57:56;1.85;;;0.65;;
80257;SDS011;69565;37.974;23.708;2023-04-24T10:00:26;0.90;;;0.60;;
80257;SDS011;69565;37.974;23.708;2023-04-24T10:05:29;1.08;;;0.60;;
80257;SDS011;69565;37.974;23.708;2023-04-24T10:08:07;4.10;;;0.70;;
80257;SDS011;69565;37.974;23.708;2023-04-24T10:10:43;4.88;;;0.60;;
80257;SDS011;69565;37.974;23.708;2023-04-24T10:13:11;6.18;;;0.70;;
80257;SDS011;69565;37.974;23.708;2023-04-24T10:15:37;0.90;;;0.50;;
80257;SDS011;69565;37.974;23.708;2023-04-24T10:18:04;3.50;;;0.68;;
80257;SDS011;69565;37.974;23.708;2023-04-24T10:20:31;0.85;;;0.50;;
80257;SDS011;69565;37.974;23.708;2023-04-24T10:22:59;0.90;;;0.55;;
80257;SDS011;69565;37.974;23.708;2023-04-24T10:25:29;2.78;;;0.50;;
80257;SDS011;69565;37.974;23.708;2023-04-24T10:27:56;1.17;;;0.50;;
80257;SDS011;69565;37.974;23.708;2023-04-24T10:30:25;0.50;;;0.50;;
80257;SDS011;69565;37.974;23.708;2023-04-24T10:32:52;1.92;;;0.50;;
80257;SDS011;69565;37.974;23.708;2023-04-24T10:35:19;1.02;;;0.60;;
80257;SDS011;69565;37.974;23.708;2023-04-24T10:37:51;2.58;;;0.52;;
80257;SDS011;69565;37.974;23.708;2023-04-24T10:40:26;0.80;;;0.60;;
80257;SDS011;69565;37.974;23.708;2023-04-24T10:43:02;1.15;;;0.60;;
80257;SDS011;69565;37.974;23.708;2023-04-24T10:45:31;1.98;;;0.60;;
80257;SDS011;69565;37.974;23.708;2023-04-24T10:47:58;2.45;;;0.57;;
80257;SDS011;69565;37.974;23.708;2023-04-24T10:53:17;0.73;;;0.60;;
80257;SDS011;69565;37.974;23.708;2023-04-24T10:55:45;1.70;;;0.60;;
80257;SDS011;69565;37.974;23.708;2023-04-24T10:58:13;3.30;;;0.70;;
80257;SDS011;69565;37.974;23.708;2023-04-24T11:00:41;1.20;;;0.70;;
80257;SDS011;69565;37.974;23.708;2023-04-24T11:03:26;2.22;;;0.60;;
80257;SDS011;69565;37.974;23.708;2023-04-24T11:05:57;1.33;;;0.70;;
80257;SDS011;69565;37.974;23.708;2023-04-24T11:08:28;1.95;;;0.60;;
80257;SDS011;69565;37.974;23.708;2023-04-24T11:11:08;0.85;;;0.60;;
80257;SDS011;69565;37.974;23.708;2023-04-24T11:19:22;1.30;;;0.70;;
80257;SDS011;69565;37.974;23.708;2023-04-24T11:22:00;1.30;;;0.60;;
80257;SDS011;69565;37.974;23.708;2023-04-24T11:27:15;4.00;;;0.70;;
80257;SDS011;69565;37.974;23.708;2023-04-24T11:32:27;0.60;;;0.50;;
80257;SDS011;69565;37.974;23.708;2023-04-24T11:37:36;3.55;;;0.70;;
80257;SDS011;69565;37.974;23.708;2023-04-24T11:40:03;1.20;;;0.60;;
80257;SDS011;69565;37.974;23.708;2023-04-24T11:42:38;1.58;;;0.55;;
80257;SDS011;69565;37.974;23.708;2023-04-24T11:45:08;3.35;;;0.70;;
80257;SDS011;69565;37.974;23.708;2023-04-24T11:47:35;4.25;;;0.60;;
80257;SDS011;69565;37.974;23.708;2023-04-24T11:50:01;1.10;;;0.60;;
80257;SDS011;69565;37.974;23.708;2023-04-24T11:52:29;4.00;;;0.80;;
80257;SDS011;69565;37.974;23.708;2023-04-24T11:54:55;3.42;;;0.75;;
80257;SDS011;69565;37.974;23.708;2023-04-24T11:57:21;1.00;;;0.70;;
80257;SDS011;69565;37.974;23.708;2023-04-24T11:59:49;3.00;;;0.70;;
80257;SDS011;69565;37.974;23.708;2023-04-24T12:02:22;1.45;;;0.70;;
80257;SDS011;69565;37.974;23.708;2023-04-24T12:04:48;1.48;;;0.70;;
80257;SDS011;69565;37.974;23.708;2023-04-24T12:07:14;1.48;;;0.70;;
80257;SDS011;69565;37.974;23.708;2023-04-24T12:09:55;2.42;;;0.73;;
80257;SDS011;69565;37.974;23.708;2023-04-24T12:12:24;5.25;;;0.70;;
80257;SDS011;69565;37.974;23.708;2023-04-24T12:14:55;2.33;;;0.70;;
80257;SDS011;69565;37.974;23.708;2023-04-24T12:19:50;1.10;;;0.50;;
80257;SDS011;69565;37.974;23.708;2023-04-24T12:22:16;2.60;;;0.60;;
80257;SDS011;69565;37.974;23.708;2023-04-24T12:27:33;3.17;;;0.75;;
80257;SDS011;69565;37.974;23.708;2023-04-24T12:29:59;1.55;;;0.60;;
80257;SDS011;69565;37.974;23.708;2023-04-24T12:32:26;1.25;;;0.60;;
80257;SDS011;69565;37.974;23.708;2023-04-24T12:34:53;1.27;;;0.60;;
80257;SDS011;69565;37.974;23.708;2023-04-24T12:37:20;1.40;;;0.50;;
80257;SDS011;69565;37.974;23.708;2023-04-24T12:39:59;1.45;;;0.50;;
80257;SDS011;69565;37.974;23.708;2023-04-24T12:42:26;0.77;;;0.50;;
80257;SDS011;69565;37.974;23.708;2023-04-24T12:44:56;4.53;;;0.60;;
80257;SDS011;69565;37.974;23.708;2023-04-24T12:47:24;2.63;;;0.55;;
80257;SDS011;69565;37.974;23.708;2023-04-24T12:49:50;1.92;;;0.50;;
80257;SDS011;69565;37.974;23.708;2023-04-24T12:52:17;2.80;;;0.50;;
80257;SDS011;69565;37.974;23.708;2023-04-24T12:54:45;2.53;;;0.60;;
80257;SDS011;69565;37.974;23.708;2023-04-24T12:57:11;2.95;;;0.47;;
80257;SDS011;69565;37.974;23.708;2023-04-24T12:59:37;1.20;;;0.60;;
80257;SDS011;69565;37.974;23.708;2023-04-24T13:02:04;2.17;;;0.50;;
80257;SDS011;69565;37.974;23.708;2023-04-24T13:04:31;1.42;;;0.55;;
80257;SDS011;69565;37.974;23.708;2023-04-24T13:06:57;1.30;;;0.60;;
80257;SDS011;69565;37.974;23.708;2023-04-24T13:09:23;0.93;;;0.60;;
80257;SDS011;69565;37.974;23.708;2023-04-24T13:11:49;0.90;;;0.55;;
80257;SDS011;69565;37.974;23.708;2023-04-24T13:14:15;2.60;;;0.52;;
80257;SDS011;69565;37.974;23.708;2023-04-24T13:16:41;3.20;;;0.60;;
80257;SDS011;69565;37.974;23.708;2023-04-24T13:19:07;1.88;;;0.60;;
80257;SDS011;69565;37.974;23.708;2023-04-24T13:21:32;5.18;;;0.60;;
80257;SDS011;69565;37.974;23.708;2023-04-24T13:23:58;2.40;;;0.50;;
80257;SDS011;69565;37.974;23.708;2023-04-24T13:26:24;0.88;;;0.50;;
80257;SDS011;69565;37.974;23.708;2023-04-24T13:28:50;0.93;;;0.60;;
80257;SDS011;69565;37.974;23.708;2023-04-24T13:31:16;0.90;;;0.47;;
80257;SDS011;69565;37.974;23.708;2023-04-24T13:33:41;1.52;;;0.55;;
80257;SDS011;69565;37.974;23.708;2023-04-24T13:36:07;0.80;;;0.50;;
80257;SDS011;69565;37.974;23.708;2023-04-24T13:38:33;0.73;;;0.50;;
80257;SDS011;69565;37.974;23.708;2023-04-24T13:40:59;0.70;;;0.50;;
80257;SDS011;69565;37.974;23.708;2023-04-24T13:43:25;1.13;;;0.40;;
80257;SDS011;69565;37.974;23.708;2023-04-24T13:45:51;2.10;;;0.50;;
80257;SDS011;69565;37.974;23.708;2023-04-24T13:48:17;1.30;;;0.50;;
80257;SDS011;69565;37.974;23.708;2023-04-24T13:50:43;1.60;;;0.50;;
80257;SDS011;69565;37.974;23.708;2023-04-24T13:53:09;1.88;;;0.50;;
80257;SDS011;69565;37.974;23.708;2023-04-24T13:55:35;0.75;;;0.70;;
80257;SDS011;69565;37.974;23.708;2023-04-24T13:58:01;2.17;;;0.55;;
80257;SDS011;69565;37.974;23.708;2023-04-24T14:00:27;1.00;;;0.50;;
80257;SDS011;69565;37.974;23.708;2023-04-24T14:02:53;3.50;;;0.45;;
80257;SDS011;69565;37.974;23.708;2023-04-24T14:05:19;0.68;;;0.40;;
80257;SDS011;69565;37.974;23.708;2023-04-24T14:07:46;1.85;;;0.40;;
80257;SDS011;69565;37.974;23.708;2023-04-24T14:10:12;0.70;;;0.50;;
80257;SDS011;69565;37.974;23.708;2023-04-24T14:12:38;0.85;;;0.50;;
80257;SDS011;69565;37.974;23.708;2023-04-24T14:15:04;1.60;;;0.50;;
80257;SDS011;69565;37.974;23.708;2023-04-24T14:17:30;1.77;;;0.40;;
80257;SDS011;69565;37.974;23.708;2023-04-24T14:19:56;0.75;;;0.50;;
80257;SDS011;69565;37.974;23.708;2023-04-24T14:22:24;0.73;;;0.40;;
80257;SDS011;69565;37.974;23.708;2023-04-24T14:24:50;0.57;;;0.45;;
80257;SDS011;69565;37.974;23.708;2023-04-24T14:27:16;2.40;;;0.50;;
80257;SDS011;69565;37.974;23.708;2023-04-24T14:29:42;1.48;;;0.40;;
80257;SDS011;69565;37.974;23.708;2023-04-24T14:32:07;0.88;;;0.50;;
80257;SDS011;69565;37.974;23.708;2023-04-24T14:34:34;1.85;;;0.50;;
80257;SDS011;69565;37.974;23.708;2023-04-24T14:37:00;2.08;;;0.50;;
80257;SDS011;69565;37.974;23.708;2023-04-24T14:39:25;3.03;;;0.43;;
80257;SDS011;69565;37.974;23.708;2023-04-24T14:41:51;2.17;;;0.45;;
80257;SDS011;69565;37.974;23.708;2023-04-24T14:44:17;0.73;;;0.45;;
80257;SDS011;69565;37.974;23.708;2023-04-24T14:46:42;2.17;;;0.50;;
80257;SDS011;69565;37.974;23.708;2023-04-24T14:49:08;3.30;;;0.40;;
80257;SDS011;69565;37.974;23.708;2023-04-24T14:51:35;4.57;;;0.50;;
80257;SDS011;69565;37.974;23.708;2023-04-24T14:54:01;0.88;;;0.50;;